VABB/BOM METAR and TAF weather

Enter ICAO airport designator
Station Type Date Time Source
VABB METAR 2019/04/25 01:30 UTC NOAA

VABB 250130Z 30003KT 2800 HZ SCT020 SCT100 29/22 Q1010 TEMPO 2500 HZ


Station Type Date Time Source
VABB Decoded METAR 2019/04/25 01:30 UTC NOAA

Bombay / Santacruz, India (VABB) 19-07N 072-51E 14M
Apr 24, 2019 - 09:30 PM EDT / 2019.04.25 0130 UTC
Wind: from the WNW (300 degrees) at 3 MPH (3 KT):0
Visibility: 1 mile(s):0
Sky conditions: partly cloudy
Weather: haze
Temperature: 84 F (29 C)
Dew Point: 71 F (22 C)
Relative Humidity: 65%
Pressure (altimeter): 29.83 in. Hg (1010 hPa)
ob: VABB 250130Z 30003KT 2800 HZ SCT020 SCT100 29/22 Q1010 TEMPO 2500 HZ
cycle: 1

Station Type Date Time Source
VABB TAF 2019/04/24 18:58 UTC NOAA

TAF VABB 241700Z 2418/2524 32005KT 3000 HZ FEW100
BECMG 2422/2424 VRB03KT FEW020 SCT100
BECMG 2501/2503 02005KT
BECMG 2504/2506 26012KT 4000 HZ
BECMG 2507/2509 5000 HZ FU FEW020
BECMG 2513/2515 33006KT 4000 HZ
BECMG 2521/2523 VRB03KT 3000 HZ

Example: see airport list